KCXP

Carson Airport

Carson City, Nevada, USA
METAR KCXP 171635Z AUTO 00000KT 10SM CLR 23/07 A3030 RMK AO2
Observed Flight Rules
Aug-17 @ 16:35 UTC (16 minutes ago) Visual Flight Rules
Visibility Clouds
10 miles
  • Clear skies
Temperatures Readings
Current 23°C / 73°F
Dewpoint 7°C / 45°F
Humidity 36%
Altimeter 30.3" Hg
Pressure 1026 hPa
Elevation 1435
METAR KCXP 171635Z AUTO 00000KT 10SM CLR 23/07 A3030 RMK AO2
Observed Flight Rules
Aug-17 @ 16:35 UTC
(16 minutes ago)
VFR
Clouds
  • Clear skies
Temperature Dewpoint
23°C / 73°F 7°C / 45°F
Humidity Altimeter Pressure
36% 30.3" Hg 1026 hPa